< < Back
Terminal Aerodrome Forecast


Current Version              Previous Versions:   1  2  3  4  5  6  7  8  9  

Terminal Aerodrome Forecast

420
FTUS42 KJAX 281720
TAFSSI
TAF
KSSI 281720Z 2818/2918 02013G20KT P6SM VCSH SCT025 BKN050
      TEMPO 2818/2820 BKN025
     FM290000 35010G15KT P6SM VCSH SCT025 BKN050
     FM290600 30010KT P6SM BKN015 BKN025=

Latest METAR

335
SAUS70 KWBC 290700 RRL
MTRSSI
METAR KSSI 290653Z AUTO 29006KT 10SM CLR 21/19 A3000 RMK AO2 SLP161
T02060194


USA.gov is the U.S. government's official web portal to all federal, state and local government web resources and services.